^^
Your Local Weather - Clay, NY Station Historical Data
Daily Summary for June 6, 2017 Units:  English    Metric   Both
« Previous Day
Next Day »
Daily Weekly Monthly Yearly Custom
  High: Low: Average:
Temperature: 56.1 °F 51.1 °F 53.5 °F
Dew Point: 54.4 °F 46.8 °F 51.2 °F
Humidity: 94% 85% 92%
Wind Speed: 5.0mph 0.0mph 2.2mph
Wind Gust: 10.0mph - -
Wind- - ESE
Pressure: 29.94 in 29.65 in -
Precipitation: 0.49 in    
Historical Graphs
 
 
Tabular Data for June 6, 2017
Time Temperature Dew Point Pressure Wind Wind Speed Wind Gust Humidity Rainfall Rate (Hourly) solar
00:04 56.1 °F 54.4 °F 29.69 in NW 1.0 mph 2.0 mph 94% 0.00 in 0 W/m2
00:10 56.1 °F 54.4 °F 29.69 in NW 1.0 mph 1.0 mph 94% 0.00 in 0 W/m2
00:16 56.0 °F 54.3 °F 29.68 in NNE 1.0 mph 1.0 mph 94% 0.00 in 0 W/m2
00:22 56.0 °F 54.3 °F 29.69 in NNE 1.0 mph 1.0 mph 94% 0.00 in 0 W/m2
00:28 56.0 °F 54.3 °F 29.68 in Calm   1.0 mph 94% 0.00 in 0 W/m2
00:34 56.0 °F 54.3 °F 29.68 in Calm   1.0 mph 94% 0.00 in 0 W/m2
00:40 55.9 °F 54.2 °F 29.68 in Calm     94% 0.00 in 0 W/m2
00:46 55.9 °F 54.2 °F 29.68 in Calm     94% 0.00 in 0 W/m2
00:52 55.9 °F 54.2 °F 29.68 in Calm     94% 0.00 in 0 W/m2
00:58 55.9 °F 54.2 °F 29.68 in NW 1.0 mph 3.0 mph 94% 0.00 in 0 W/m2
01:04 55.9 °F 54.2 °F 29.68 in NW 1.0 mph 1.0 mph 94% 0.00 in 0 W/m2
01:10 55.8 °F 54.1 °F 29.67 in NW 1.0 mph 2.0 mph 94% 0.00 in 0 W/m2
01:16 55.8 °F 54.1 °F 29.67 in NW 1.0 mph 2.0 mph 94% 0.00 in 0 W/m2
01:22 55.8 °F 54.1 °F 29.67 in WNW 1.0 mph 2.0 mph 94% 0.00 in 0 W/m2
01:28 55.7 °F 54.0 °F 29.67 in WNW 1.0 mph 2.0 mph 94% 0.00 in 0 W/m2
01:34 55.7 °F 54.0 °F 29.67 in NW 1.0 mph 3.0 mph 94% 0.00 in 0 W/m2
01:40 55.8 °F 54.1 °F 29.67 in NW 1.0 mph 2.0 mph 94% 0.00 in 0 W/m2
01:46 55.8 °F 54.1 °F 29.67 in NW 1.0 mph 2.0 mph 94% 0.00 in 0 W/m2
01:52 55.9 °F 54.2 °F 29.67 in NW 1.0 mph 1.0 mph 94% 0.00 in 0 W/m2
01:58 55.9 °F 54.2 °F 29.66 in NW 1.0 mph 2.0 mph 94% 0.00 in 0 W/m2
02:06 56.0 °F 54.3 °F 29.66 in NW 1.0 mph 2.0 mph 94% 0.00 in 0 W/m2
02:12 56.1 °F 54.4 °F 29.66 in NW 1.0 mph 2.0 mph 94% 0.00 in 0 W/m2
02:18 56.1 °F 54.4 °F 29.66 in NNW 2.0 mph 2.0 mph 94% 0.00 in 0 W/m2
02:24 56.1 °F 54.4 °F 29.66 in ENE 1.0 mph 2.0 mph 94% 0.00 in 0 W/m2
02:30 56.0 °F 54.3 °F 29.66 in ENE 1.0 mph 3.0 mph 94% 0.00 in 0 W/m2
02:36 56.0 °F 54.3 °F 29.66 in ESE 1.0 mph 3.0 mph 94% 0.00 in 0 W/m2
02:42 56.0 °F 54.3 °F 29.65 in ENE 1.0 mph 2.0 mph 94% 0.00 in 0 W/m2
02:48 55.9 °F 54.2 °F 29.66 in ENE 1.0 mph 2.0 mph 94% 0.00 in 0 W/m2
02:54 55.9 °F 54.2 °F 29.66 in Calm   2.0 mph 94% 0.00 in 0 W/m2
03:00 55.8 °F 54.1 °F 29.65 in Calm   3.0 mph 94% 0.00 in 0 W/m2
03:06 55.8 °F 54.1 °F 29.65 in ENE 1.0 mph 3.0 mph 94% 0.00 in 0 W/m2
03:12 55.8 °F 54.1 °F 29.66 in ENE 1.0 mph 1.0 mph 94% 0.00 in 0 W/m2
03:18 55.7 °F 54.0 °F 29.66 in ENE 1.0 mph 1.0 mph 94% 0.00 in 0 W/m2
03:24 55.8 °F 54.1 °F 29.66 in Calm   2.0 mph 94% 0.00 in 0 W/m2
03:30 55.8 °F 54.1 °F 29.66 in ESE 1.0 mph 1.0 mph 94% 0.00 in 0 W/m2
03:36 55.8 °F 54.1 °F 29.65 in Calm   1.0 mph 94% 0.00 in 0 W/m2
03:42 55.7 °F 54.0 °F 29.65 in Calm   4.0 mph 94% 0.00 in 0 W/m2
03:48 55.7 °F 54.0 °F 29.65 in NE 1.0 mph 4.0 mph 94% 0.00 in 0 W/m2
03:54 55.7 °F 54.0 °F 29.65 in NE 1.0 mph 1.0 mph 94% 0.00 in 0 W/m2
04:00 55.7 °F 54.0 °F 29.65 in Calm     94% 0.00 in 0 W/m2
04:06 55.7 °F 54.0 °F 29.66 in NE 1.0 mph 1.0 mph 94% 0.00 in 0 W/m2
04:12 55.7 °F 54.0 °F 29.66 in ENE 1.0 mph 1.0 mph 94% 0.00 in 0 W/m2
04:18 55.6 °F 53.9 °F 29.65 in NE 1.0 mph 6.0 mph 94% 0.00 in 0 W/m2
04:24 55.5 °F 53.8 °F 29.65 in ENE 2.0 mph 5.0 mph 94% 0.00 in 0 W/m2
04:30 55.5 °F 53.8 °F 29.66 in ENE 2.0 mph 2.0 mph 94% 0.00 in 0 W/m2
04:36 55.4 °F 53.7 °F 29.66 in East 2.0 mph 5.0 mph 94% 0.00 in 0 W/m2
04:42 55.3 °F 53.6 °F 29.66 in ENE 1.0 mph 2.0 mph 94% 0.00 in 0 W/m2
04:48 55.3 °F 53.6 °F 29.66 in ENE 1.0 mph 2.0 mph 94% 0.00 in 0 W/m2
04:54 55.2 °F 53.5 °F 29.66 in East 2.0 mph 5.0 mph 94% 0.00 in 0 W/m2
05:00 55.1 °F 53.4 °F 29.66 in East 2.0 mph 2.0 mph 94% 0.00 in 0 W/m2
05:06 55.1 °F 53.4 °F 29.66 in ENE 2.0 mph 2.0 mph 94% 0.00 in 0 W/m2
05:12 55.0 °F 53.3 °F 29.66 in SE 1.0 mph 2.0 mph 94% 0.00 in 0 W/m2
05:18 55.0 °F 53.3 °F 29.66 in NE 1.0 mph 4.0 mph 94% 0.00 in 0 W/m2
05:24 55.0 °F 53.3 °F 29.66 in ENE 1.0 mph 1.0 mph 94% 0.00 in 0 W/m2
05:30 55.0 °F 53.3 °F 29.66 in NE 1.0 mph 1.0 mph 94% 0.00 in 0 W/m2
05:36 54.9 °F 53.2 °F 29.66 in SSE 1.0 mph 2.0 mph 94% 0.00 in 0 W/m2
05:42 54.8 °F 53.1 °F 29.66 in NE 1.0 mph 7.0 mph 94% 0.00 in 0 W/m2
05:48 54.7 °F 53.0 °F 29.66 in SSE 1.0 mph 7.0 mph 94% 0.00 in 0 W/m2
05:54 54.6 °F 52.9 °F 29.66 in ESE 1.0 mph 2.0 mph 94% 0.00 in 5 W/m2
06:00 54.5 °F 52.8 °F 29.67 in SE 1.0 mph 1.0 mph 94% 0.00 in 5 W/m2
06:06 54.5 °F 52.8 °F 29.67 in East 1.0 mph 2.0 mph 94% 0.00 in 7 W/m2
06:12 54.4 °F 52.7 °F 29.67 in ENE 1.0 mph 1.0 mph 94% 0.00 in 9 W/m2
06:18 54.4 °F 52.7 °F 29.67 in SE 1.0 mph 1.0 mph 94% 0.00 in 14 W/m2
06:24 54.4 °F 52.7 °F 29.67 in ENE 1.0 mph 1.0 mph 94% 0.00 in 21 W/m2
06:30 54.3 °F 52.6 °F 29.67 in ESE 1.0 mph 3.0 mph 94% 0.00 in 23 W/m2
06:36 54.3 °F 52.6 °F 29.67 in SSE 1.0 mph 3.0 mph 94% 0.00 in 19 W/m2
06:42 54.2 °F 52.5 °F 29.67 in ESE 2.0 mph 2.0 mph 94% 0.00 in 16 W/m2
06:48 54.2 °F 52.5 °F 29.67 in NE 2.0 mph 4.0 mph 94% 0.00 in 28 W/m2
06:54 54.2 °F 52.5 °F 29.67 in SSE 2.0 mph 3.0 mph 94% 0.00 in 32 W/m2
07:00 54.3 °F 52.6 °F 29.67 in ESE 1.0 mph 2.0 mph 94% 0.00 in 26 W/m2
07:06 54.2 °F 52.5 °F 29.67 in East 1.0 mph 2.0 mph 94% 0.00 in 21 W/m2
07:12 54.2 °F 52.5 °F 29.67 in SE 1.0 mph 2.0 mph 94% 0.00 in 19 W/m2
07:18 54.2 °F 52.5 °F 29.68 in SE 1.0 mph 2.0 mph 94% 0.00 in 21 W/m2
07:24 54.2 °F 52.5 °F 29.68 in East 1.0 mph 2.0 mph 94% 0.12 in 25 W/m2
07:30 54.2 °F 52.5 °F 29.68 in SE 1.0 mph 2.0 mph 94% 0.08 in 28 W/m2
07:36 54.2 °F 52.5 °F 29.68 in East 1.0 mph 2.0 mph 94% 0.12 in 23 W/m2
07:42 54.3 °F 52.6 °F 29.68 in Calm     94% 0.05 in 18 W/m2
07:48 54.3 °F 52.6 °F 29.68 in SE 1.0 mph 1.0 mph 94% 0.15 in 25 W/m2
07:54 54.3 °F 52.6 °F 29.69 in East 1.0 mph 2.0 mph 94% 1.98 in 30 W/m2
08:00 54.1 °F 52.4 °F 29.69 in East 1.0 mph 2.0 mph 94% 0.42 in 25 W/m2
08:06 54.1 °F 52.4 °F 29.69 in ENE 1.0 mph 3.0 mph 94% 0.17 in 32 W/m2
08:12 54.2 °F 52.5 °F 29.69 in NNE 1.0 mph 2.0 mph 94% 0.07 in 32 W/m2
08:18 54.3 °F 52.6 °F 29.69 in East 1.0 mph 5.0 mph 94% 0.04 in 44 W/m2
08:24 54.3 °F 52.6 °F 29.69 in ENE 2.0 mph 4.0 mph 94% 0.00 in 35 W/m2
08:30 54.2 °F 52.5 °F 29.69 in ENE 2.0 mph 2.0 mph 94% 0.00 in 39 W/m2
08:42 54.1 °F 52.4 °F 29.69 in ENE 2.0 mph 2.0 mph 94% 0.00 in 32 W/m2
08:48 54.1 °F 52.4 °F 29.70 in NE 2.0 mph 4.0 mph 94% 0.00 in 37 W/m2
08:54 54.1 °F 52.4 °F 29.70 in NE 3.0 mph 6.0 mph 94% 0.00 in 51 W/m2
09:00 54.1 °F 52.4 °F 29.70 in ENE 3.0 mph 3.0 mph 94% 0.00 in 47 W/m2
09:06 54.2 °F 52.5 °F 29.70 in East 2.0 mph 6.0 mph 94% 0.00 in 39 W/m2
09:12 54.1 °F 52.4 °F 29.70 in NE 3.0 mph 6.0 mph 94% 0.00 in 40 W/m2
09:18 54.1 °F 52.4 °F 29.70 in SE 3.0 mph 6.0 mph 94% 0.00 in 51 W/m2
09:24 54.2 °F 52.5 °F 29.70 in SE 2.0 mph 3.0 mph 94% 0.00 in 65 W/m2
09:26 54.2 °F 52.5 °F 29.70 in East 2.0 mph 3.0 mph 94% 0.00 in 69 W/m2
09:32 54.1 °F 52.4 °F 29.70 in ENE 2.0 mph 2.0 mph 94% 0.00 in 76 W/m2
09:38 54.1 °F 52.4 °F 29.70 in ENE 3.0 mph 3.0 mph 94% 0.00 in 70 W/m2
09:44 54.0 °F 52.3 °F 29.70 in SE 3.0 mph 5.0 mph 94% 0.00 in 65 W/m2
09:50 54.0 °F 52.3 °F 29.70 in NNE 3.0 mph 8.0 mph 94% 0.00 in 69 W/m2
09:56 53.9 °F 52.2 °F 29.70 in ENE 2.0 mph 8.0 mph 94% 0.00 in 69 W/m2
10:02 53.8 °F 52.1 °F 29.70 in ENE 2.0 mph 4.0 mph 94% 0.00 in 67 W/m2
10:08 53.8 °F 51.8 °F 29.70 in ENE 4.0 mph 5.0 mph 93% 0.00 in 84 W/m2
10:14 53.9 °F 51.9 °F 29.70 in ENE 3.0 mph 5.0 mph 93% 0.00 in 120 W/m2
10:20 54.1 °F 52.1 °F 29.70 in SE 2.0 mph 2.0 mph 93% 0.00 in 97 W/m2
10:28 54.1 °F 52.1 °F 29.71 in East 2.0 mph 7.0 mph 93% 0.00 in 79 W/m2
10:34 54.1 °F 52.1 °F 29.71 in East 2.0 mph 4.0 mph 93% 0.00 in 90 W/m2
10:40 54.1 °F 52.1 °F 29.71 in NE 2.0 mph 2.0 mph 93% 0.00 in 109 W/m2
10:46 54.2 °F 52.2 °F 29.71 in NE 2.0 mph 5.0 mph 93% 0.00 in 111 W/m2
10:52 54.2 °F 52.2 °F 29.71 in ENE 3.0 mph 3.0 mph 93% 0.00 in 91 W/m2
10:58 54.1 °F 52.1 °F 29.71 in ENE 2.0 mph 3.0 mph 93% 0.00 in 83 W/m2
11:04 54.0 °F 52.0 °F 29.72 in ENE 2.0 mph 5.0 mph 93% 0.00 in 84 W/m2
11:10 53.8 °F 51.8 °F 29.72 in ENE 3.0 mph 3.0 mph 93% 0.00 in 88 W/m2
11:16 53.7 °F 51.7 °F 29.72 in NNE 3.0 mph 6.0 mph 93% 0.10 in 74 W/m2
11:22 53.6 °F 51.6 °F 29.72 in ESE 3.0 mph 3.0 mph 93% 0.08 in 62 W/m2
11:28 53.5 °F 51.5 °F 29.72 in East 2.0 mph 4.0 mph 93% 0.04 in 54 W/m2
11:34 53.5 °F 51.5 °F 29.72 in ENE 2.0 mph 6.0 mph 93% 0.00 in 46 W/m2
11:40 53.3 °F 51.3 °F 29.73 in ENE 3.0 mph 3.0 mph 93% 0.00 in 58 W/m2
11:46 53.3 °F 51.3 °F 29.73 in NE 2.0 mph 3.0 mph 93% 0.10 in 69 W/m2
11:52 53.2 °F 51.2 °F 29.73 in ENE 2.0 mph 2.0 mph 93% 0.12 in 69 W/m2
11:58 53.1 °F 51.1 °F 29.73 in SE 2.0 mph 2.0 mph 93% 0.13 in 63 W/m2
12:04 53.1 °F 51.1 °F 29.73 in North 2.0 mph 4.0 mph 93% 0.07 in 62 W/m2
12:10 53.0 °F 51.0 °F 29.73 in ENE 2.0 mph 2.0 mph 93% 0.06 in 69 W/m2
12:16 52.9 °F 50.9 °F 29.73 in ENE 3.0 mph 5.0 mph 93% 0.06 in 72 W/m2
12:22 52.9 °F 50.9 °F 29.73 in East 2.0 mph 2.0 mph 93% 0.04 in 74 W/m2
12:28 53.0 °F 51.0 °F 29.73 in ESE 2.0 mph 5.0 mph 93% 0.04 in 81 W/m2
12:34 52.8 °F 50.8 °F 29.73 in ENE 3.0 mph 5.0 mph 93% 0.15 in 102 W/m2
12:40 52.6 °F 50.6 °F 29.73 in East 4.0 mph 4.0 mph 93% 0.11 in 130 W/m2
12:46 52.5 °F 50.5 °F 29.73 in NE 3.0 mph 5.0 mph 93% 0.11 in 127 W/m2
12:52 52.5 °F 50.5 °F 29.73 in NE 4.0 mph 4.0 mph 93% 0.07 in 148 W/m2
12:58 52.5 °F 50.5 °F 29.73 in NE 3.0 mph 6.0 mph 93% 0.07 in 107 W/m2
13:04 52.5 °F 50.5 °F 29.73 in East 3.0 mph 3.0 mph 93% 0.07 in 127 W/m2
13:10 52.3 °F 50.3 °F 29.73 in SE 4.0 mph 4.0 mph 93% 0.09 in 135 W/m2
13:16 52.5 °F 50.5 °F 29.73 in ESE 4.0 mph 7.0 mph 93% 0.13 in 181 W/m2
13:22 52.5 °F 50.5 °F 29.73 in SSW 4.0 mph 6.0 mph 93% 0.09 in 179 W/m2
13:28 52.5 °F 50.5 °F 29.74 in ENE 4.0 mph 6.0 mph 93% 0.06 in 128 W/m2
13:34 52.5 °F 50.5 °F 29.74 in ENE 4.0 mph 10.0 mph 93% 0.04 in 134 W/m2
13:40 52.3 °F 50.3 °F 29.74 in NE 5.0 mph 5.0 mph 93% 0.04 in 105 W/m2
13:46 52.5 °F 50.5 °F 29.74 in ENE 3.0 mph 5.0 mph 93% 0.04 in 109 W/m2
13:52 52.4 °F 50.4 °F 29.74 in NNE 3.0 mph 4.0 mph 93% 0.00 in 81 W/m2
13:58 52.4 °F 50.4 °F 29.74 in NE 4.0 mph 5.0 mph 93% 0.00 in 100 W/m2
14:04 52.4 °F 50.4 °F 29.74 in NE 4.0 mph 4.0 mph 93% 0.00 in 105 W/m2
14:10 52.5 °F 50.5 °F 29.74 in NE 4.0 mph 5.0 mph 93% 0.00 in 116 W/m2
14:16 52.5 °F 50.5 °F 29.74 in NE 4.0 mph 5.0 mph 93% 0.00 in 104 W/m2
14:22 52.4 °F 50.1 °F 29.74 in NNE 5.0 mph 10.0 mph 92% 0.00 in 114 W/m2
14:28 52.3 °F 50.0 °F 29.75 in SE 5.0 mph 10.0 mph 92% 0.00 in 109 W/m2
14:34 52.2 °F 49.9 °F 29.75 in NE 5.0 mph 10.0 mph 92% 0.00 in 95 W/m2
14:40 52.2 °F 49.9 °F 29.75 in East 5.0 mph 5.0 mph 92% 0.00 in 118 W/m2
14:46 52.3 °F 50.0 °F 29.75 in East 4.0 mph 5.0 mph 92% 0.00 in 114 W/m2
14:52 52.2 °F 49.9 °F 29.75 in ENE 5.0 mph 5.0 mph 92% 0.04 in 202 W/m2
14:58 52.2 °F 49.9 °F 29.75 in East 5.0 mph 10.0 mph 92% 0.04 in 155 W/m2
15:04 52.3 °F 50.0 °F 29.75 in East 5.0 mph 9.0 mph 92% 0.04 in 148 W/m2
15:10 52.4 °F 50.1 °F 29.75 in North 4.0 mph 4.0 mph 92% 0.00 in 139 W/m2
15:16 52.4 °F 50.1 °F 29.76 in NNE 5.0 mph 8.0 mph 92% 0.00 in 127 W/m2
15:22 52.4 °F 50.1 °F 29.76 in SE 4.0 mph 6.0 mph 92% 0.00 in 109 W/m2
15:28 52.3 °F 50.0 °F 29.76 in NW 3.0 mph 7.0 mph 92% 0.00 in 102 W/m2
15:34 52.3 °F 50.0 °F 29.76 in East 5.0 mph 6.0 mph 92% 0.00 in 100 W/m2
15:40 52.3 °F 49.8 °F 29.76 in NE 5.0 mph 8.0 mph 91% 0.00 in 97 W/m2
15:46 52.3 °F 49.8 °F 29.76 in North 5.0 mph 10.0 mph 91% 0.00 in 105 W/m2
15:52 52.3 °F 49.8 °F 29.76 in East 4.0 mph 6.0 mph 91% 0.00 in 93 W/m2
15:58 52.3 °F 49.8 °F 29.76 in North 4.0 mph 6.0 mph 91% 0.00 in 72 W/m2
16:04 52.4 °F 49.8 °F 29.77 in East 4.0 mph 6.0 mph 91% 0.00 in 72 W/m2
16:10 52.3 °F 49.8 °F 29.77 in North 4.0 mph 6.0 mph 91% 0.00 in 67 W/m2
16:16 52.4 °F 49.8 °F 29.77 in NE 4.0 mph 6.0 mph 91% 0.00 in 62 W/m2
16:22 52.3 °F 49.8 °F 29.77 in East 4.0 mph 6.0 mph 91% 0.00 in 60 W/m2
16:28 52.3 °F 49.8 °F 29.77 in North 5.0 mph 7.0 mph 91% 0.00 in 54 W/m2
16:34 52.3 °F 49.5 °F 29.77 in ENE 5.0 mph 10.0 mph 90% 0.00 in 47 W/m2
16:40 52.4 °F 49.6 °F 29.77 in East 5.0 mph 5.0 mph 90% 0.00 in 51 W/m2
16:46 52.4 °F 49.8 °F 29.77 in NE 4.0 mph 8.0 mph 91% 0.00 in 49 W/m2
16:52 52.4 °F 49.6 °F 29.78 in NE 4.0 mph 4.0 mph 90% 0.00 in 54 W/m2
16:58 52.3 °F 49.5 °F 29.78 in NE 4.0 mph 5.0 mph 90% 0.00 in 40 W/m2
17:04 52.4 °F 49.6 °F 29.78 in NNW 4.0 mph 9.0 mph 90% 0.00 in 46 W/m2
17:10 52.3 °F 49.5 °F 29.78 in NE 5.0 mph 5.0 mph 90% 0.00 in 44 W/m2
17:16 52.1 °F 49.3 °F 29.78 in East 5.0 mph 7.0 mph 90% 0.00 in 44 W/m2
17:22 52.0 °F 49.5 °F 29.78 in East 4.0 mph 5.0 mph 91% 0.00 in 40 W/m2
17:28 51.9 °F 49.4 °F 29.79 in ENE 3.0 mph 5.0 mph 91% 0.00 in 51 W/m2
17:34 51.9 °F 49.4 °F 29.79 in NNE 4.0 mph 7.0 mph 91% 0.00 in 46 W/m2
17:40 51.8 °F 49.3 °F 29.80 in East 4.0 mph 4.0 mph 91% 0.00 in 40 W/m2
17:46 51.9 °F 49.6 °F 29.80 in NE 3.0 mph 4.0 mph 92% 0.00 in 46 W/m2
17:52 52.0 °F 49.7 °F 29.80 in ENE 4.0 mph 4.0 mph 92% 0.00 in 69 W/m2
17:58 51.9 °F 49.6 °F 29.80 in East 4.0 mph 9.0 mph 92% 0.00 in 76 W/m2
18:04 51.9 °F 49.6 °F 29.80 in East 4.0 mph 6.0 mph 92% 0.00 in 69 W/m2
18:10 51.9 °F 49.6 °F 29.80 in NE 4.0 mph 4.0 mph 92% 0.00 in 54 W/m2
18:16 52.0 °F 49.7 °F 29.81 in NE 3.0 mph 4.0 mph 92% 0.00 in 40 W/m2
18:22 51.9 °F 49.6 °F 29.82 in NE 2.0 mph 3.0 mph 92% 0.00 in 28 W/m2
18:28 51.9 °F 49.6 °F 29.82 in NNE 3.0 mph 4.0 mph 92% 0.00 in 56 W/m2
18:34 51.8 °F 49.5 °F 29.82 in ESE 3.0 mph 5.0 mph 92% 0.00 in 51 W/m2
18:40 51.7 °F 49.5 °F 29.83 in East 5.0 mph 5.0 mph 92% 0.00 in 46 W/m2
18:46 51.8 °F 49.5 °F 29.83 in NE 3.0 mph 6.0 mph 92% 0.00 in 53 W/m2
18:52 51.9 °F 49.6 °F 29.83 in NE 2.0 mph 2.0 mph 92% 0.00 in 54 W/m2
18:58 51.9 °F 49.6 °F 29.83 in East 2.0 mph 5.0 mph 92% 0.00 in 53 W/m2
19:04 51.9 °F 49.4 °F 29.83 in SSE 2.0 mph 3.0 mph 91% 0.00 in 53 W/m2
19:10 51.9 °F 49.4 °F 29.84 in South 2.0 mph 2.0 mph 91% 0.00 in 49 W/m2
19:16 52.0 °F 49.5 °F 29.84 in ENE 2.0 mph 4.0 mph 91% 0.00 in 40 W/m2
19:22 52.0 °F 49.5 °F 29.84 in NE 2.0 mph 2.0 mph 91% 0.00 in 35 W/m2
19:28 52.1 °F 49.6 °F 29.85 in ENE 2.0 mph 3.0 mph 91% 0.00 in 28 W/m2
19:34 52.1 °F 49.6 °F 29.85 in East 3.0 mph 3.0 mph 91% 0.00 in 25 W/m2
19:40 52.0 °F 49.5 °F 29.85 in SSE 2.0 mph 2.0 mph 91% 0.00 in 25 W/m2
19:46 52.0 °F 49.5 °F 29.85 in ENE 2.0 mph 3.0 mph 91% 0.00 in 23 W/m2
19:52 52.0 °F 49.5 °F 29.85 in ENE 2.0 mph 2.0 mph 91% 0.00 in 19 W/m2
19:58 52.0 °F 49.2 °F 29.85 in NE 1.0 mph 5.0 mph 90% 0.00 in 16 W/m2
20:04 52.0 °F 49.2 °F 29.85 in ENE 1.0 mph 1.0 mph 90% 0.00 in 12 W/m2
20:10 52.0 °F 49.2 °F 29.86 in Calm     90% 0.00 in 9 W/m2
20:16 52.0 °F 49.2 °F 29.86 in NE 1.0 mph 3.0 mph 90% 0.00 in 5 W/m2
20:22 52.0 °F 49.2 °F 29.86 in NE 1.0 mph 2.0 mph 90% 0.00 in 0 W/m2
20:28 51.9 °F 49.1 °F 29.86 in ENE 2.0 mph 2.0 mph 90% 0.00 in 0 W/m2
20:34 52.0 °F 49.2 °F 29.86 in NE 1.0 mph 3.0 mph 90% 0.00 in 0 W/m2
20:40 52.0 °F 49.2 °F 29.87 in NE 2.0 mph 2.0 mph 90% 0.00 in 0 W/m2
20:46 52.0 °F 49.2 °F 29.87 in SE 2.0 mph 2.0 mph 90% 0.00 in 0 W/m2
20:52 51.9 °F 49.1 °F 29.88 in ESE 1.0 mph 2.0 mph 90% 0.00 in 0 W/m2
20:58 51.9 °F 49.1 °F 29.88 in NE 1.0 mph 3.0 mph 90% 0.00 in 0 W/m2
21:04 51.9 °F 49.1 °F 29.88 in ENE 1.0 mph 1.0 mph 90% 0.00 in 0 W/m2
21:10 51.9 °F 49.1 °F 29.88 in ENE 2.0 mph 3.0 mph 90% 0.00 in 0 W/m2
21:16 51.9 °F 49.1 °F 29.88 in NE 1.0 mph 3.0 mph 90% 0.00 in 0 W/m2
21:22 51.9 °F 49.1 °F 29.89 in NNE 1.0 mph 3.0 mph 90% 0.00 in 0 W/m2
21:28 51.9 °F 49.1 °F 29.89 in NE 1.0 mph 3.0 mph 90% 0.00 in 0 W/m2
21:34 51.9 °F 49.1 °F 29.89 in NE 1.0 mph 3.0 mph 90% 0.00 in 0 W/m2
21:40 51.9 °F 49.1 °F 29.89 in NE 1.0 mph 1.0 mph 90% 0.00 in 0 W/m2
21:46 51.8 °F 49.0 °F 29.89 in NE 1.0 mph 1.0 mph 90% 0.00 in 0 W/m2
21:52 51.8 °F 49.0 °F 29.89 in Calm     90% 0.00 in 0 W/m2
21:58 51.9 °F 48.8 °F 29.90 in NE 2.0 mph 3.0 mph 89% 0.00 in 0 W/m2
22:04 52.0 °F 48.9 °F 29.90 in ENE 2.0 mph 3.0 mph 89% 0.00 in 0 W/m2
22:10 51.9 °F 48.8 °F 29.91 in SSE 1.0 mph 1.0 mph 89% 0.00 in 0 W/m2
22:16 51.9 °F 48.5 °F 29.91 in ENE 2.0 mph 8.0 mph 88% 0.00 in 0 W/m2
22:22 51.9 °F 48.2 °F 29.91 in SSE 3.0 mph 4.0 mph 87% 0.00 in 0 W/m2
22:28 51.9 °F 48.2 °F 29.91 in East 1.0 mph 4.0 mph 87% 0.00 in 0 W/m2
22:34 51.8 °F 48.1 °F 29.91 in East 2.0 mph 2.0 mph 87% 0.00 in 0 W/m2
22:40 51.7 °F 47.6 °F 29.92 in East 2.0 mph 2.0 mph 86% 0.00 in 0 W/m2
22:46 51.7 °F 47.6 °F 29.92 in ENE 2.0 mph 8.0 mph 86% 0.00 in 0 W/m2
22:52 51.6 °F 47.2 °F 29.92 in NE 3.0 mph 3.0 mph 85% 0.00 in 0 W/m2
22:58 51.5 °F 47.5 °F 29.92 in NNE 2.0 mph 3.0 mph 86% 0.00 in 0 W/m2
23:04 51.4 °F 47.4 °F 29.93 in NE 2.0 mph 3.0 mph 86% 0.00 in 0 W/m2
23:10 51.3 °F 47.3 °F 29.93 in SE 2.0 mph 2.0 mph 86% 0.00 in 0 W/m2
23:16 51.3 °F 47.3 °F 29.93 in ENE 1.0 mph 2.0 mph 86% 0.00 in 0 W/m2
23:22 51.2 °F 47.2 °F 29.93 in ENE 2.0 mph 2.0 mph 86% 0.00 in 0 W/m2
23:28 51.2 °F 47.2 °F 29.93 in SE 2.0 mph 3.0 mph 86% 0.00 in 0 W/m2
23:34 51.1 °F 47.1 °F 29.93 in SE 2.0 mph 2.0 mph 86% 0.00 in 0 W/m2
23:40 51.1 °F 47.1 °F 29.94 in ENE 2.0 mph 2.0 mph 86% 0.00 in 0 W/m2
23:46 51.1 °F 47.1 °F 29.94 in ENE 2.0 mph 5.0 mph 86% 0.00 in 0 W/m2
23:52 51.2 °F 46.8 °F 29.94 in SE 2.0 mph 2.0 mph 85% 0.00 in 0 W/m2
23:58 51.2 °F 46.8 °F 29.94 in North 2.0 mph 3.0 mph 85% 0.00 in 0 W/m2
Country Meadow, Clay, NY, USA
Compliments of Weather Underground - 2 mb